createdAt,value
2018-07-26T00:00:07.669Z,21.30
2018-07-26T00:04:11.638Z,21.30
2018-07-26T00:08:15.488Z,21.30
2018-07-26T00:12:19.378Z,21.30
2018-07-26T00:16:23.217Z,21.30
2018-07-26T00:20:27.234Z,21.30
2018-07-26T00:24:31.092Z,21.20
2018-07-26T00:28:35.128Z,21.20
2018-07-26T00:32:39.035Z,21.20
2018-07-26T00:36:42.903Z,21.20
2018-07-26T00:40:46.752Z,21.10
2018-07-26T00:48:54.215Z,21.10
2018-07-26T00:52:58.083Z,21.10
2018-07-26T00:57:01.927Z,21.00
2018-07-26T01:01:05.828Z,21.00
2018-07-26T01:05:09.663Z,21.00
2018-07-26T01:09:13.569Z,21.00
2018-07-26T01:13:17.427Z,21.00
2018-07-26T01:17:21.316Z,21.00
2018-07-26T01:21:25.200Z,21.00
2018-07-26T01:25:29.117Z,21.00
2018-07-26T01:29:32.951Z,21.00
2018-07-26T01:37:40.326Z,21.00
2018-07-26T01:41:44.236Z,20.90
2018-07-26T01:45:48.119Z,21.00
2018-07-26T01:49:52.107Z,21.00
2018-07-26T01:53:55.952Z,20.90
2018-07-26T01:57:59.827Z,20.90
2018-07-26T02:02:03.690Z,20.90
2018-07-26T02:10:11.235Z,20.70
2018-07-26T02:14:20.499Z,20.70
2018-07-26T02:18:24.343Z,20.70
2018-07-26T02:22:28.332Z,20.70
2018-07-26T02:26:32.172Z,20.60
2018-07-26T02:30:36.127Z,20.60
2018-07-26T02:34:39.963Z,20.60
2018-07-26T02:38:43.836Z,20.60
2018-07-26T02:42:47.680Z,20.60
2018-07-26T02:46:51.568Z,20.60
2018-07-26T02:50:55.417Z,20.50
2018-07-26T02:54:59.498Z,20.60
2018-07-26T02:59:03.336Z,20.70
2018-07-26T03:03:07.197Z,20.50
2018-07-26T03:07:11.076Z,20.60
2018-07-26T03:11:14.899Z,20.70
2018-07-26T03:15:18.744Z,20.60
2018-07-26T03:19:22.639Z,20.50
2018-07-26T03:23:26.521Z,20.50
2018-07-26T03:27:30.398Z,20.50
2018-07-26T03:31:34.227Z,20.50
2018-07-26T03:35:38.119Z,20.50
2018-07-26T03:39:41.969Z,20.50
2018-07-26T03:43:45.976Z,20.40
2018-07-26T03:47:49.819Z,20.40
2018-07-26T03:51:53.816Z,20.40
2018-07-26T03:55:57.651Z,20.40
2018-07-26T04:00:01.528Z,20.40
2018-07-26T04:04:05.772Z,20.40
2018-07-26T04:12:19.947Z,20.40
2018-07-26T04:16:23.833Z,20.40
2018-07-26T04:20:27.676Z,20.40
2018-07-26T04:24:31.647Z,20.40
2018-07-26T04:28:35.489Z,20.40
2018-07-26T04:32:39.400Z,20.50
2018-07-26T04:36:43.354Z,20.60
2018-07-26T04:40:47.259Z,20.60
2018-07-26T04:44:51.099Z,20.70
2018-07-26T04:48:55.642Z,20.80
2018-07-26T04:52:59.488Z,20.80
2018-07-26T04:57:03.440Z,21.20
2018-07-26T05:01:07.287Z,21.20
2018-07-26T05:09:14.847Z,22.10
2018-07-26T05:13:18.736Z,22.90
2018-07-26T05:17:22.581Z,23.30
2018-07-26T05:21:26.470Z,23.40
2018-07-26T05:25:30.388Z,23.40
2018-07-26T05:29:34.482Z,23.40
2018-07-26T05:33:38.320Z,23.30
2018-07-26T05:37:42.198Z,23.20
2018-07-26T05:41:46.048Z,23.10
2018-07-26T05:45:49.959Z,23.20
2018-07-26T05:49:53.807Z,23.20
2018-07-26T05:53:57.782Z,23.30
2018-07-26T05:58:01.633Z,23.30
2018-07-26T06:02:05.762Z,23.40
2018-07-26T06:06:09.600Z,23.50
2018-07-26T06:10:13.479Z,23.70
2018-07-26T06:14:17.367Z,23.80
2018-07-26T06:18:21.255Z,23.80
2018-07-26T06:22:25.113Z,23.90
2018-07-26T06:26:29.064Z,24.30
2018-07-26T06:30:32.924Z,24.50
2018-07-26T06:34:36.820Z,24.70
2018-07-26T06:38:40.664Z,24.80
2018-07-26T06:46:48.143Z,25.10
2018-07-26T06:50:52.107Z,25.30
2018-07-26T07:03:03.012Z,27.40
2018-07-26T07:31:28.258Z,28.70
2018-07-26T07:35:32.215Z,29.10
2018-07-26T07:39:36.201Z,29.10
2018-07-26T07:47:43.664Z,29.90
2018-07-26T07:55:51.008Z,32.10
2018-07-26T07:59:54.962Z,33.00
2018-07-26T08:08:02.391Z,33.70
2018-07-26T08:12:06.377Z,33.40
2018-07-26T08:16:10.284Z,33.00
2018-07-26T08:20:14.160Z,32.70
2018-07-26T08:28:21.563Z,32.40
2018-07-26T08:32:25.404Z,32.20
2018-07-26T08:36:29.379Z,32.00
2018-07-26T08:48:40.277Z,31.80
2018-07-26T08:56:47.645Z,31.80
2018-07-26T09:04:55.043Z,31.90
2018-07-26T09:08:58.918Z,31.90
2018-07-26T09:13:02.753Z,32.00
2018-07-26T09:25:13.796Z,32.50
2018-07-26T09:33:21.482Z,32.70
2018-07-26T09:45:32.683Z,32.80
2018-07-26T09:49:36.612Z,32.70
2018-07-26T09:53:40.403Z,32.80
2018-07-26T10:01:47.803Z,32.80
2018-07-26T10:05:51.671Z,32.80
2018-07-26T10:13:59.167Z,33.00
2018-07-26T10:26:10.012Z,33.50
2018-07-26T10:30:14.283Z,33.50
2018-07-26T10:34:18.135Z,33.50
2018-07-26T10:46:29.920Z,33.70
2018-07-26T10:50:33.755Z,33.60
2018-07-26T10:58:41.112Z,33.60
2018-07-26T11:06:48.504Z,34.00
2018-07-26T11:10:52.477Z,33.80
2018-07-26T11:15:02.173Z,33.90
2018-07-26T11:19:05.834Z,34.00
2018-07-26T11:23:09.620Z,33.90
2018-07-26T11:27:13.486Z,34.10
2018-07-26T11:39:24.641Z,34.50
2018-07-26T11:43:28.513Z,34.50
2018-07-26T11:47:32.351Z,34.60
2018-07-26T11:51:36.242Z,34.60
2018-07-26T11:55:40.090Z,34.60
2018-07-26T11:59:44.036Z,34.90
2018-07-26T12:07:51.450Z,34.80
2018-07-26T12:11:55.296Z,34.90
2018-07-26T12:15:59.304Z,34.80
2018-07-26T12:24:06.715Z,35.00
2018-07-26T12:28:10.599Z,35.30
2018-07-26T12:32:14.799Z,35.40
2018-07-26T12:36:18.643Z,35.20
2018-07-26T12:40:22.552Z,35.30
2018-07-26T12:44:26.392Z,35.40
2018-07-26T12:48:30.268Z,35.40
2018-07-26T12:52:34.118Z,35.40
2018-07-26T12:56:38.003Z,35.40
2018-07-26T13:00:41.848Z,35.30
2018-07-26T13:04:45.716Z,35.30
2018-07-26T13:08:49.563Z,35.30
2018-07-26T13:12:53.544Z,35.30
2018-07-26T13:16:57.384Z,35.30
2018-07-26T13:21:01.353Z,35.40
2018-07-26T13:25:05.651Z,35.50
2018-07-26T13:29:09.569Z,35.40
2018-07-26T13:33:13.531Z,35.50
2018-07-26T13:37:17.406Z,35.70
2018-07-26T13:41:21.244Z,35.90
2018-07-26T13:45:25.148Z,36.00
2018-07-26T14:01:40.664Z,36.00
2018-07-26T14:09:48.119Z,36.10
2018-07-26T14:13:51.948Z,36.20
2018-07-26T14:17:55.903Z,36.00
2018-07-26T14:21:59.740Z,36.00
2018-07-26T14:26:03.732Z,35.60
2018-07-26T14:30:08.139Z,35.20
2018-07-26T14:34:12.408Z,35.20
2018-07-26T14:38:21.119Z,35.10
2018-07-26T14:42:25.000Z,35.10
2018-07-26T14:46:28.929Z,34.90
2018-07-26T14:50:32.824Z,35.00
2018-07-26T14:54:36.712Z,35.00
2018-07-26T14:58:40.725Z,35.10
2018-07-26T15:02:44.532Z,35.10
2018-07-26T15:06:48.419Z,35.20
2018-07-26T15:10:52.271Z,35.20
2018-07-26T15:14:56.155Z,34.90
2018-07-26T15:19:00.000Z,34.70
2018-07-26T15:23:03.883Z,34.70
2018-07-26T15:27:07.777Z,34.50
2018-07-26T15:31:16.664Z,34.20
2018-07-26T15:35:15.746Z,34.20
2018-07-26T15:39:19.879Z,34.10
2018-07-26T15:43:23.743Z,33.90
2018-07-26T15:47:27.611Z,33.80
2018-07-26T15:51:31.460Z,33.70
2018-07-26T15:55:35.350Z,33.80
2018-07-26T15:59:39.872Z,33.80
2018-07-26T16:03:44.108Z,33.80
2018-07-26T16:07:47.966Z,33.90
2018-07-26T16:11:51.933Z,33.90
2018-07-26T16:19:59.336Z,33.70
2018-07-26T16:28:07.009Z,33.60
2018-07-26T16:32:11.024Z,33.70
2018-07-26T16:36:15.041Z,33.60
2018-07-26T16:44:22.417Z,33.50
2018-07-26T16:52:29.805Z,33.40
2018-07-26T16:56:33.638Z,33.40
2018-07-26T17:00:37.551Z,33.30
2018-07-26T17:04:41.396Z,33.30
2018-07-26T17:12:49.185Z,33.20
2018-07-26T17:16:53.057Z,33.10
2018-07-26T17:20:56.895Z,33.10
2018-07-26T17:25:00.761Z,33.00
2018-07-26T17:29:04.641Z,32.90
2018-07-26T17:33:08.464Z,32.80
2018-07-26T17:37:12.408Z,32.80
2018-07-26T17:41:16.283Z,32.80
2018-07-26T17:45:20.137Z,32.80
2018-07-26T17:49:24.107Z,32.70
2018-07-26T17:53:27.943Z,32.60
2018-07-26T18:01:35.368Z,32.40
2018-07-26T18:05:39.304Z,32.30
2018-07-26T18:09:43.136Z,32.20
2018-07-26T18:13:47.049Z,32.10
2018-07-26T18:17:51.380Z,32.00
2018-07-26T18:21:55.679Z,31.90
2018-07-26T18:25:59.551Z,31.70
2018-07-26T18:34:06.944Z,31.50
2018-07-26T18:38:11.050Z,31.30
2018-07-26T18:42:14.824Z,31.10
2018-07-26T18:46:18.824Z,31.00
2018-07-26T18:54:26.188Z,30.70
2018-07-26T19:06:37.268Z,30.30
2018-07-26T19:10:41.184Z,30.20
2018-07-26T19:14:45.049Z,30.00
2018-07-26T19:22:58.972Z,29.80
2018-07-26T19:27:03.260Z,29.60
2018-07-26T19:31:07.108Z,29.50
2018-07-26T19:35:11.555Z,29.30
2018-07-26T19:39:15.617Z,29.30
2018-07-26T19:43:19.464Z,29.20
2018-07-26T19:47:23.297Z,29.10
2018-07-26T19:51:27.230Z,28.80
2018-07-26T19:55:31.064Z,28.80
2018-07-26T19:59:35.043Z,28.70
2018-07-26T20:07:42.427Z,28.50
2018-07-26T20:11:46.296Z,28.30
2018-07-26T20:15:50.164Z,28.20
2018-07-26T20:19:54.064Z,28.10
2018-07-26T20:23:57.980Z,28.00
2018-07-26T20:28:01.891Z,27.90
2018-07-26T20:32:05.744Z,27.80
2018-07-26T20:36:09.588Z,27.70
2018-07-26T20:40:13.902Z,27.60
2018-07-26T20:44:17.741Z,27.50
2018-07-26T20:48:21.681Z,27.40
2018-07-26T20:52:25.520Z,27.40
2018-07-26T20:56:29.404Z,27.40
2018-07-26T21:00:33.240Z,27.40
2018-07-26T21:04:37.151Z,27.40
2018-07-26T21:08:40.985Z,27.40
2018-07-26T21:12:44.971Z,27.40
2018-07-26T21:16:48.817Z,27.40
2018-07-26T21:20:52.706Z,27.30
2018-07-26T21:24:56.531Z,27.30
2018-07-26T21:29:00.400Z,27.30
2018-07-26T21:33:04.240Z,27.30
2018-07-26T21:37:08.118Z,27.30
2018-07-26T21:41:12.053Z,27.40
2018-07-26T21:45:15.928Z,27.50
2018-07-26T21:49:19.776Z,27.60
2018-07-26T21:53:24.380Z,27.60
2018-07-26T22:01:32.118Z,27.70
2018-07-26T22:05:36.092Z,27.90
2018-07-26T22:09:39.932Z,27.90
2018-07-26T22:13:44.108Z,27.90
2018-07-26T22:17:47.995Z,27.90
2018-07-26T22:21:51.811Z,27.90
2018-07-26T22:25:55.640Z,27.90
2018-07-26T22:29:59.507Z,27.90
2018-07-26T22:34:03.340Z,27.90
2018-07-26T22:38:07.292Z,27.80
2018-07-26T22:46:21.116Z,27.70
2018-07-26T22:50:24.956Z,27.60
2018-07-26T22:54:28.855Z,27.50
2018-07-26T22:58:32.731Z,27.50
2018-07-26T23:02:36.588Z,27.40
2018-07-26T23:06:40.416Z,27.40
2018-07-26T23:10:44.400Z,27.20
2018-07-26T23:14:48.315Z,27.20
2018-07-26T23:18:53.324Z,27.20
2018-07-26T23:22:57.161Z,27.10
2018-07-26T23:27:01.212Z,27.10
2018-07-26T23:31:05.039Z,27.00
2018-07-26T23:35:09.476Z,27.00
2018-07-26T23:39:13.419Z,27.00
2018-07-26T23:43:17.312Z,26.90
2018-07-26T23:47:21.147Z,26.90
2018-07-26T23:55:28.527Z,26.80
2018-07-26T23:59:32.464Z,26.70
